Terminal Aerodrome Forecast
Issued by NWS

Home | Current Version | Previous Version | Text Only | Print | Product List | Glossary On
Versions: 1 2 3 4 5 6 7 8 9 10 11 12 13 14 15 16 17 18 19 20 21
000
FTUS41 KBGM 270800 AAA
TAFELM
TAF AMD
KELM 270801Z 2708/2806 27004KT P6SM SCT025
      TEMPO 2708/2711 5SM BR
     FM271400 33007KT P6SM OVC035=

USA.gov is the U.S. government's official web portal to all federal, state and local government web resources and services.